createdAt,value
2018-05-17T00:02:41.586Z,53.80
2018-05-17T00:07:37.845Z,53.30
2018-05-17T00:10:05.419Z,53.70
2018-05-17T00:12:33.611Z,52.90
2018-05-17T00:17:29.179Z,51.50
2018-05-17T00:19:57.211Z,52.30
2018-05-17T00:24:52.830Z,51.60
2018-05-17T00:27:20.852Z,51.10
2018-05-17T00:29:48.139Z,50.80
2018-05-17T00:32:16.149Z,50.40
2018-05-17T00:34:45.350Z,50.40
2018-05-17T00:37:13.381Z,50.50
2018-05-17T00:39:40.696Z,50.30
2018-05-17T00:44:37.094Z,50.00
2018-05-17T00:49:33.335Z,49.80
2018-05-17T00:52:01.370Z,49.60
2018-05-17T00:54:29.436Z,49.60
2018-05-17T00:56:56.749Z,49.50
2018-05-17T00:59:24.848Z,49.60
2018-05-17T01:01:52.167Z,49.50
2018-05-17T01:04:19.454Z,49.40
2018-05-17T01:06:47.594Z,49.20
2018-05-17T01:09:15.341Z,49.50
2018-05-17T01:11:42.628Z,49.50
2018-05-17T01:14:10.667Z,50.50
2018-05-17T01:16:37.971Z,50.80
2018-05-17T01:19:06.044Z,50.90
2018-05-17T01:21:34.389Z,50.80
2018-05-17T01:24:01.825Z,50.50
2018-05-17T01:26:29.124Z,51.70
2018-05-17T01:28:56.396Z,51.50
2018-05-17T01:31:23.698Z,51.00
2018-05-17T01:38:47.810Z,51.30
2018-05-17T01:41:15.086Z,51.40
2018-05-17T01:43:43.135Z,51.90
2018-05-17T01:46:10.498Z,51.20
2018-05-17T01:48:38.567Z,52.10
2018-05-17T01:53:34.900Z,52.50
2018-05-17T01:58:31.272Z,50.80
2018-05-17T02:00:59.291Z,50.60
2018-05-17T02:03:26.569Z,50.60
2018-05-17T02:05:53.861Z,50.60
2018-05-17T02:08:22.109Z,50.40
2018-05-17T02:13:17.787Z,50.10
2018-05-17T02:15:45.081Z,50.30
2018-05-17T02:18:13.114Z,50.30
2018-05-17T02:20:40.377Z,50.20
2018-05-17T02:23:07.654Z,50.00
2018-05-17T02:25:34.931Z,50.30
2018-05-17T02:30:30.419Z,50.60
2018-05-17T02:35:25.962Z,49.40
2018-05-17T02:40:21.418Z,49.20
2018-05-17T02:45:17.750Z,47.70
2018-05-17T02:50:14.130Z,48.00
2018-05-17T02:52:41.423Z,47.80
2018-05-17T02:57:36.909Z,47.50
2018-05-17T03:00:04.926Z,47.10
2018-05-17T03:07:29.798Z,46.80
2018-05-17T03:12:25.653Z,47.30
2018-05-17T03:14:52.942Z,47.30
2018-05-17T03:19:48.452Z,47.30
2018-05-17T03:22:16.593Z,47.00
2018-05-17T03:27:12.897Z,47.10
2018-05-17T03:32:08.510Z,47.10
2018-05-17T03:34:36.558Z,46.40
2018-05-17T03:37:04.607Z,47.40
2018-05-17T03:39:31.943Z,46.40
2018-05-17T03:41:59.974Z,47.10
2018-05-17T03:44:27.273Z,47.30
2018-05-17T03:46:54.555Z,46.70
2018-05-17T03:49:22.011Z,46.60
2018-05-17T03:51:49.294Z,46.50
2018-05-17T03:54:16.561Z,46.40
2018-05-17T03:59:12.083Z,46.50
2018-05-17T04:04:26.929Z,47.00
2018-05-17T04:09:22.431Z,47.00
2018-05-17T04:11:50.443Z,47.00
2018-05-17T04:14:17.722Z,46.90
2018-05-17T04:19:13.562Z,46.60
2018-05-17T04:21:41.690Z,46.40
2018-05-17T04:24:08.953Z,46.40
2018-05-17T04:26:36.238Z,46.30
2018-05-17T04:31:32.613Z,46.20
2018-05-17T04:34:00.670Z,46.10
2018-05-17T04:38:56.195Z,46.10
2018-05-17T04:46:20.643Z,46.10
2018-05-17T04:48:48.051Z,46.30
2018-05-17T04:51:16.131Z,46.20
2018-05-17T04:56:11.774Z,46.40
2018-05-17T04:58:39.072Z,45.90
2018-05-17T05:01:06.418Z,46.40
2018-05-17T05:06:01.946Z,46.40
2018-05-17T05:08:29.307Z,46.20
2018-05-17T05:10:56.642Z,46.20
2018-05-17T05:13:24.702Z,46.40
2018-05-17T05:15:52.709Z,45.90
2018-05-17T05:18:20.147Z,45.90
2018-05-17T05:20:47.434Z,45.50
2018-05-17T05:23:15.479Z,45.70
2018-05-17T05:25:43.930Z,45.70
2018-05-17T05:28:11.277Z,46.20
2018-05-17T05:33:06.798Z,46.30
2018-05-17T05:35:34.842Z,46.50
2018-05-17T05:38:02.896Z,46.70
2018-05-17T05:40:31.191Z,46.80
2018-05-17T05:42:59.299Z,46.80
2018-05-17T05:45:26.566Z,46.70
2018-05-17T05:47:53.937Z,46.80
2018-05-17T05:50:21.253Z,46.60
2018-05-17T05:52:48.551Z,46.40
2018-05-17T05:55:15.882Z,46.40
2018-05-17T05:57:43.958Z,46.80
2018-05-17T06:02:39.527Z,47.20
2018-05-17T06:05:07.695Z,47.00
2018-05-17T06:07:34.986Z,46.90
2018-05-17T06:12:31.282Z,46.50
2018-05-17T06:17:26.995Z,46.20
2018-05-17T06:19:54.428Z,46.20
2018-05-17T06:22:22.471Z,46.10
2018-05-17T06:27:18.803Z,45.80
2018-05-17T06:34:43.318Z,45.00
2018-05-17T06:37:10.613Z,44.80
2018-05-17T06:39:38.631Z,44.60
2018-05-17T06:42:05.954Z,44.50
2018-05-17T06:44:33.219Z,45.00
2018-05-17T06:47:00.536Z,45.00
2018-05-17T06:49:28.622Z,45.10
2018-05-17T06:51:56.785Z,45.20
2018-05-17T06:54:24.226Z,46.00
2018-05-17T06:56:52.294Z,46.50
2018-05-17T07:01:47.838Z,45.30
2018-05-17T07:04:15.150Z,45.20
2018-05-17T07:06:42.492Z,45.20
2018-05-17T07:11:37.978Z,44.80
2018-05-17T07:14:05.338Z,44.50
2018-05-17T07:16:32.640Z,44.40
2018-05-17T07:19:00.690Z,44.20
2018-05-17T07:21:28.722Z,44.30
2018-05-17T07:26:24.690Z,44.60
2018-05-17T07:28:52.015Z,44.90
2018-05-17T07:31:19.562Z,45.10
2018-05-17T07:33:46.873Z,45.00
2018-05-17T07:38:42.363Z,45.00
2018-05-17T07:41:10.392Z,45.00
2018-05-17T07:43:38.395Z,45.00
2018-05-17T07:46:05.682Z,45.20
2018-05-17T07:48:32.955Z,45.20
2018-05-17T07:51:00.287Z,45.00
2018-05-17T07:53:27.570Z,45.00
2018-05-17T07:55:55.692Z,44.70
2018-05-17T07:58:24.052Z,44.60
2018-05-17T08:00:51.346Z,44.50
2018-05-17T08:03:19.343Z,44.80
2018-05-17T08:08:14.859Z,44.90
2018-05-17T08:10:42.201Z,45.60
2018-05-17T08:13:10.243Z,44.90
2018-05-17T08:15:37.576Z,44.70
2018-05-17T08:18:05.860Z,44.90
2018-05-17T08:20:33.022Z,45.40
2018-05-17T08:23:01.069Z,45.20
2018-05-17T08:25:29.091Z,45.00
2018-05-17T08:27:56.422Z,44.60
2018-05-17T08:30:24.433Z,44.30
2018-05-17T08:32:52.474Z,44.50
2018-05-17T08:35:20.479Z,44.00
2018-05-17T08:40:16.743Z,44.90
2018-05-17T08:42:44.783Z,45.20
2018-05-17T08:45:12.770Z,45.20
2018-05-17T08:50:08.281Z,44.80
2018-05-17T08:55:03.783Z,43.60
2018-05-17T08:57:31.431Z,43.60
2018-05-17T09:02:26.983Z,44.00
2018-05-17T09:07:23.268Z,44.20
2018-05-17T09:12:19.788Z,44.50
2018-05-17T09:14:47.062Z,44.00
2018-05-17T09:27:07.497Z,44.50
2018-05-17T09:32:03.116Z,44.90
2018-05-17T09:34:30.393Z,44.50
2018-05-17T09:36:57.831Z,44.60
2018-05-17T09:41:53.378Z,44.10
2018-05-17T09:44:21.823Z,44.10
2018-05-17T09:46:49.164Z,44.10
2018-05-17T09:49:16.450Z,44.10
2018-05-17T09:54:11.985Z,44.20
2018-05-17T09:56:39.237Z,44.20
2018-05-17T10:01:35.462Z,44.50
2018-05-17T10:04:03.524Z,44.30
2018-05-17T10:09:00.047Z,44.10
2018-05-17T10:11:27.272Z,43.20
2018-05-17T10:16:22.769Z,43.40
2018-05-17T10:18:50.483Z,43.40
2018-05-17T10:21:18.544Z,43.10
2018-05-17T10:23:46.586Z,43.20
2018-05-17T10:26:14.725Z,42.90
2018-05-17T10:28:42.044Z,44.90
2018-05-17T10:31:10.123Z,45.10
2018-05-17T10:33:38.154Z,44.10
2018-05-17T10:36:05.556Z,43.50
2018-05-17T10:38:33.575Z,43.50
2018-05-17T10:43:29.060Z,43.00
2018-05-17T10:45:57.083Z,43.50
2018-05-17T10:48:25.094Z,43.20
2018-05-17T10:50:53.123Z,42.80
2018-05-17T10:55:48.693Z,42.80
2018-05-17T10:58:16.062Z,42.50
2018-05-17T11:00:43.362Z,42.30
2018-05-17T11:05:39.663Z,42.00
2018-05-17T11:08:07.699Z,42.00
2018-05-17T11:10:35.006Z,41.70
2018-05-17T11:15:30.586Z,41.80
2018-05-17T11:17:57.987Z,41.40
2018-05-17T11:20:25.390Z,42.00
2018-05-17T11:25:21.738Z,41.70
2018-05-17T11:27:49.016Z,41.60
2018-05-17T11:30:16.343Z,41.40
2018-05-17T11:32:43.751Z,41.70
2018-05-17T11:37:40.223Z,41.70
2018-05-17T11:40:07.658Z,41.40
2018-05-17T11:42:34.935Z,41.70
2018-05-17T11:47:30.710Z,41.30
2018-05-17T11:49:58.769Z,41.50
2018-05-17T11:52:26.188Z,41.50
2018-05-17T11:54:53.504Z,40.90
2018-05-17T11:57:20.783Z,41.20
2018-05-17T11:59:49.138Z,41.80
2018-05-17T12:02:16.431Z,41.50
2018-05-17T12:04:44.451Z,41.00
2018-05-17T12:07:12.581Z,41.30
2018-05-17T12:09:39.982Z,41.20
2018-05-17T12:12:08.107Z,40.90
2018-05-17T12:14:36.138Z,41.00
2018-05-17T12:17:03.464Z,41.20
2018-05-17T12:21:59.037Z,39.70
2018-05-17T12:24:26.525Z,41.50
2018-05-17T12:29:22.806Z,41.30
2018-05-17T12:31:51.009Z,40.60
2018-05-17T12:36:46.409Z,40.10
2018-05-17T12:39:14.183Z,39.60
2018-05-17T12:41:41.973Z,39.80
2018-05-17T12:44:09.299Z,39.80
2018-05-17T12:46:36.567Z,40.30
2018-05-17T12:49:03.876Z,40.20
2018-05-17T12:51:31.171Z,40.20
2018-05-17T12:53:58.580Z,39.80
2018-05-17T12:56:25.946Z,40.30
2018-05-17T12:58:53.277Z,40.10
2018-05-17T13:01:20.524Z,39.00
2018-05-17T13:03:47.997Z,40.20
2018-05-17T13:06:15.372Z,40.30
2018-05-17T13:08:42.696Z,40.40
2018-05-17T13:11:10.092Z,40.90
2018-05-17T13:16:05.905Z,40.00
2018-05-17T13:18:33.198Z,39.40
2018-05-17T13:23:28.724Z,39.00
2018-05-17T13:28:24.251Z,39.50
2018-05-17T13:33:19.800Z,39.60
2018-05-17T13:35:47.914Z,39.00
2018-05-17T13:40:43.531Z,38.90
2018-05-17T13:43:11.328Z,38.70
2018-05-17T13:45:38.604Z,38.70
2018-05-17T13:48:07.048Z,38.80
2018-05-17T13:50:34.483Z,39.00
2018-05-17T13:53:01.911Z,38.90
2018-05-17T13:55:29.999Z,38.50
2018-05-17T14:00:25.467Z,38.20
2018-05-17T14:02:52.884Z,38.30
2018-05-17T14:07:48.370Z,38.50
2018-05-17T14:12:43.921Z,39.10
2018-05-17T14:15:12.096Z,39.40
2018-05-17T14:27:33.312Z,40.30
2018-05-17T14:32:28.830Z,40.20
2018-05-17T14:34:56.867Z,40.30
2018-05-17T14:37:24.581Z,40.30
2018-05-17T14:39:52.620Z,39.80
2018-05-17T14:44:48.377Z,40.50
2018-05-17T14:47:16.420Z,40.20
2018-05-17T14:49:44.484Z,40.00
2018-05-17T14:57:08.431Z,40.30
2018-05-17T14:59:36.495Z,39.90
2018-05-17T15:02:03.874Z,40.20
2018-05-17T15:04:31.178Z,39.50
2018-05-17T15:06:58.768Z,40.90
2018-05-17T15:09:26.839Z,41.00
2018-05-17T15:11:54.127Z,40.00
2018-05-17T15:14:22.307Z,40.90
2018-05-17T15:16:50.429Z,41.40
2018-05-17T15:19:17.846Z,40.80
2018-05-17T15:21:45.034Z,40.70
2018-05-17T15:24:13.113Z,40.10
2018-05-17T15:26:40.488Z,40.30
2018-05-17T15:29:07.853Z,40.10
2018-05-17T15:31:35.148Z,40.10
2018-05-17T15:34:02.470Z,40.40
2018-05-17T15:38:58.046Z,40.20
2018-05-17T15:41:25.623Z,39.90
2018-05-17T15:43:52.959Z,39.60
2018-05-17T15:46:20.311Z,39.30
2018-05-17T15:48:47.784Z,39.50
2018-05-17T15:51:15.175Z,40.70
2018-05-17T15:53:42.458Z,41.00
2018-05-17T15:56:09.775Z,40.70
2018-05-17T15:58:37.031Z,39.80
2018-05-17T16:01:07.854Z,40.30
2018-05-17T16:03:35.903Z,40.20
2018-05-17T16:06:03.216Z,39.30
2018-05-17T16:08:31.461Z,39.30
2018-05-17T16:10:58.799Z,39.80
2018-05-17T16:13:26.183Z,39.90
2018-05-17T16:23:45.956Z,40.80
2018-05-17T16:26:24.402Z,40.30
2018-05-17T16:31:22.759Z,40.90
2018-05-17T16:33:56.824Z,40.40
2018-05-17T16:36:24.277Z,40.40
2018-05-17T16:38:52.542Z,40.80
2018-05-17T16:43:51.718Z,41.00
2018-05-17T16:46:24.355Z,40.30
2018-05-17T16:48:55.617Z,40.60
2018-05-17T16:51:22.987Z,41.00
2018-05-17T16:53:50.325Z,40.70
2018-05-17T16:56:18.606Z,40.60
2018-05-17T16:58:48.764Z,40.40
2018-05-17T17:01:19.388Z,40.20
2018-05-17T17:03:47.585Z,40.50
2018-05-17T17:06:15.027Z,40.40
2018-05-17T17:08:46.527Z,40.40
2018-05-17T17:11:17.511Z,40.40
2018-05-17T17:13:47.040Z,41.70
2018-05-17T17:16:18.366Z,40.80
2018-05-17T17:18:46.739Z,41.00
2018-05-17T17:21:14.216Z,42.40
2018-05-17T17:23:43.210Z,41.90
2018-05-17T17:26:12.328Z,41.40
2018-05-17T17:28:49.799Z,39.30
2018-05-17T17:31:20.207Z,42.40
2018-05-17T17:33:49.583Z,42.50
2018-05-17T17:36:16.978Z,42.10
2018-05-17T17:38:49.608Z,41.40
2018-05-17T17:41:16.961Z,41.70
2018-05-17T17:43:47.490Z,41.40
2018-05-17T17:46:15.980Z,41.80
2018-05-17T17:48:44.037Z,43.00
2018-05-17T17:53:41.551Z,41.70
2018-05-17T17:56:10.004Z,42.20
2018-05-17T17:58:38.143Z,42.50
2018-05-17T18:01:07.415Z,42.40
2018-05-17T18:06:06.393Z,42.10
2018-05-17T18:08:37.602Z,39.50
2018-05-17T18:11:08.699Z,42.80
2018-05-17T18:16:13.710Z,42.40
2018-05-17T18:18:43.098Z,44.00
2018-05-17T18:23:40.408Z,45.20
2018-05-17T18:28:36.714Z,44.40
2018-05-17T18:31:07.245Z,45.70
2018-05-17T18:33:36.433Z,45.70
2018-05-17T18:36:04.538Z,45.40
2018-05-17T18:38:31.934Z,45.50
2018-05-17T18:41:02.234Z,44.70
2018-05-17T18:43:31.408Z,44.70
2018-05-17T18:45:59.469Z,44.60
2018-05-17T18:50:55.124Z,44.80
2018-05-17T18:53:25.179Z,45.00
2018-05-17T18:55:54.306Z,45.00
2018-05-17T18:58:21.565Z,45.80
2018-05-17T19:00:48.874Z,44.40
2018-05-17T19:03:16.278Z,45.00
2018-05-17T19:05:43.661Z,44.70
2018-05-17T19:13:11.242Z,43.70
2018-05-17T19:15:43.080Z,47.30
2018-05-17T19:20:39.520Z,47.40
2018-05-17T19:23:10.181Z,47.00
2018-05-17T19:25:38.371Z,46.90
2018-05-17T19:28:10.305Z,46.50
2018-05-17T19:30:39.439Z,46.60
2018-05-17T19:33:08.914Z,46.30
2018-05-17T19:35:38.964Z,45.70
2018-05-17T19:43:03.889Z,47.30
2018-05-17T19:45:32.642Z,45.60
2018-05-17T19:48:02.065Z,45.90
2018-05-17T19:50:30.372Z,47.70
2018-05-17T19:52:58.575Z,48.20
2018-05-17T19:55:26.630Z,48.20
2018-05-17T20:00:26.141Z,48.00
2018-05-17T20:02:58.180Z,48.30
2018-05-17T20:07:56.635Z,47.60
2018-05-17T20:10:30.241Z,46.90
2018-05-17T20:12:59.163Z,46.80
2018-05-17T20:23:01.997Z,47.90
2018-05-17T20:25:36.704Z,49.10
2018-05-17T20:28:08.689Z,49.40
2018-05-17T20:30:37.819Z,48.50
2018-05-17T20:35:35.968Z,49.20
2018-05-17T20:38:03.350Z,49.50
2018-05-17T20:40:30.665Z,47.80
2018-05-17T20:42:58.965Z,48.10
2018-05-17T20:47:55.534Z,47.30
2018-05-17T20:50:23.613Z,49.30
2018-05-17T20:52:51.698Z,48.90
2018-05-17T20:55:19.837Z,50.00
2018-05-17T21:00:19.394Z,49.40
2018-05-17T21:05:16.844Z,47.30
2018-05-17T21:10:16.541Z,48.90
2018-05-17T21:12:45.907Z,46.30
2018-05-17T21:15:13.176Z,46.90
2018-05-17T21:17:40.539Z,49.30
2018-05-17T21:20:10.305Z,49.60
2018-05-17T21:22:43.110Z,49.90
2018-05-17T21:25:16.190Z,49.30
2018-05-17T21:27:44.240Z,46.80
2018-05-17T21:35:13.322Z,49.60
2018-05-17T21:37:44.331Z,50.80
2018-05-17T21:40:14.344Z,48.80
2018-05-17T21:42:41.715Z,49.80
2018-05-17T21:50:09.318Z,48.10
2018-05-17T21:52:45.262Z,47.90
2018-05-17T21:55:14.667Z,48.90
2018-05-17T21:57:47.672Z,48.50
2018-05-17T22:00:15.881Z,49.00
2018-05-17T22:02:47.379Z,50.30
2018-05-17T22:05:14.714Z,49.40
2018-05-17T22:07:44.651Z,49.40
2018-05-17T22:10:16.812Z,50.20
2018-05-17T22:12:46.964Z,50.80
2018-05-17T22:15:17.139Z,50.00
2018-05-17T22:17:44.659Z,47.90
2018-05-17T22:20:12.752Z,47.40
2018-05-17T22:22:40.871Z,48.10
2018-05-17T22:25:08.262Z,50.40
2018-05-17T22:27:36.315Z,47.80
2018-05-17T22:32:32.596Z,48.40
2018-05-17T22:35:00.042Z,50.40
2018-05-17T22:37:28.139Z,49.30
2018-05-17T22:39:55.496Z,50.10
2018-05-17T22:42:22.808Z,50.70
2018-05-17T22:47:19.107Z,52.50
2018-05-17T22:49:47.268Z,51.30
2018-05-17T22:52:15.329Z,51.40
2018-05-17T22:54:42.599Z,52.00
2018-05-17T23:02:06.303Z,50.00
2018-05-17T23:04:33.573Z,49.60
2018-05-17T23:07:01.641Z,48.70
2018-05-17T23:09:28.972Z,46.90
2018-05-17T23:14:25.258Z,49.30
2018-05-17T23:16:52.566Z,48.00
2018-05-17T23:19:19.874Z,50.80
2018-05-17T23:21:47.171Z,50.30
2018-05-17T23:26:42.771Z,47.60
2018-05-17T23:31:38.363Z,50.40
2018-05-17T23:36:34.028Z,50.20
2018-05-17T23:39:02.132Z,49.30
2018-05-17T23:41:35.426Z,49.00
2018-05-17T23:44:02.720Z,48.50
2018-05-17T23:46:30.970Z,49.00
2018-05-17T23:48:59.044Z,50.60
2018-05-17T23:53:55.322Z,50.90
